Time;durP1;ratioP1;P1;durP2;ratioP2;P2;SDS_P1;SDS_P2;PMS_P1;PMS_P2;Temp;Humidity;BMP_temperature;BMP_pressure;BME280_temperature;BME280_humidity;BME280_pressure;Samples;Min_cycle;Max_cycle;Signal;HPM_P1;HPM_P2
2022/06/14 00:03:15;;;;;;;15.50;6.53;;;;;;;23.76;77.80;100409.69;4999827;28;20065;-84
2022/06/14 00:05:43;;;;;;;12.93;6.55;;;;;;;23.44;80.05;100412.22;5002091;28;20033;-84
2022/06/14 00:08:10;;;;;;;12.18;6.60;;;;;;;23.38;81.18;100407.78;4999648;28;20049;-84
2022/06/14 00:10:37;;;;;;;17.13;7.10;;;;;;;23.39;81.25;100409.41;4999158;28;20448;-83
2022/06/14 00:13:03;;;;;;;11.88;7.18;;;;;;;23.20;81.85;100406.16;4998794;28;20106;-84
2022/06/14 00:15:29;;;;;;;10.95;6.63;;;;;;;23.15;83.02;100408.78;4995491;28;20038;-84
2022/06/14 00:17:54;;;;;;;11.48;6.80;;;;;;;23.14;82.60;100407.97;4999833;28;20042;-85
2022/06/14 00:20:26;;;;;;;16.10;7.18;;;;;;;22.96;84.53;100410.94;4999155;28;20476;-89
2022/06/14 00:22:55;;;;;;;9.90;6.80;;;;;;;23.23;82.92;100404.84;4999635;28;20080;-87
2022/06/14 00:25:48;;;;;;;12.00;7.20;;;;;;;22.88;85.60;100405.94;4998690;28;20047;-88
2022/06/14 00:28:17;;;;;;;12.98;7.18;;;;;;;22.88;85.34;100403.22;4999336;28;20045;-85
2022/06/14 00:30:46;;;;;;;12.00;6.45;;;;;;;22.88;85.57;100405.94;4998323;28;20049;-86
2022/06/14 00:33:14;;;;;;;15.93;6.65;;;;;;;22.81;86.38;100407.97;4997405;28;20054;-84
2022/06/14 00:35:40;;;;;;;12.25;6.43;;;;;;;22.70;87.85;100406.16;4997349;28;20045;-86
2022/06/14 00:38:06;;;;;;;10.10;6.32;;;;;;;22.56;90.46;100410.22;5000382;28;20022;-84
2022/06/14 00:40:36;;;;;;;11.20;6.75;;;;;;;22.46;91.37;100401.91;5002221;28;20034;-84
2022/06/14 00:43:05;;;;;;;12.82;6.28;;;;;;;22.47;91.96;100400.88;5000468;28;20030;-86
2022/06/14 00:45:30;;;;;;;13.55;7.03;;;;;;;22.30;94.08;100400.00;4998090;28;20077;-86
2022/06/14 00:48:07;;;;;;;12.27;6.20;;;;;;;22.26;95.25;100398.84;4997051;28;20046;-86
2022/06/14 00:50:44;;;;;;;14.32;6.47;;;;;;;22.20;96.16;100400.63;4998129;28;20034;-86
2022/06/14 00:53:25;;;;;;;11.27;6.47;;;;;;;22.29;96.12;100404.59;4993482;28;20034;-85
2022/06/14 00:56:20;;;;;;;14.80;6.13;;;;;;;22.34;95.35;100417.38;5007369;28;20097;-86
2022/06/14 00:58:54;;;;;;;11.13;6.53;;;;;;;22.35;94.45;100414.41;4988265;28;20042;-84
2022/06/14 01:01:27;;;;;;;10.98;5.90;;;;;;;22.61;91.71;100418.38;4998099;28;20035;-86
2022/06/14 01:04:00;;;;;;;13.60;6.03;;;;;;;22.50;92.79;100424.69;4994956;28;20034;-85
2022/06/14 01:06:44;;;;;;;13.25;5.85;;;;;;;22.13;95.03;100432.34;4996179;28;20560;-86
2022/06/14 01:09:16;;;;;;;11.32;6.65;;;;;;;21.92;97.90;100428.41;4998666;28;20081;-87
2022/06/14 01:12:11;;;;;;;;;;;;;;;21.73;100.00;100426.91;5001524;28;20081;-88
2022/06/14 01:14:42;;;;;;;14.25;6.22;;;;;;;21.74;100.00;100428.53;4939113;29;19902;-86
2022/06/14 01:17:12;;;;;;;14.45;6.35;;;;;;;21.66;100.00;100437.00;4937416;29;20044;-86
2022/06/14 01:19:42;;;;;;;15.50;6.65;;;;;;;21.25;100.00;100439.81;4938882;29;20071;-88
2022/06/14 01:22:08;;;;;;;20.95;6.03;;;;;;;21.29;100.00;100447.19;4936952;29;20040;-86
2022/06/14 01:24:39;;;;;;;12.35;6.53;;;;;;;21.30;100.00;100443.47;4950527;28;20039;-86
2022/06/14 01:27:33;;;;;;;8.95;5.95;;;;;;;21.40;100.00;100443.69;5000594;28;20074;-88
2022/06/14 01:30:23;;;;;;;11.52;6.40;;;;;;;21.53;100.00;100456.94;4988200;28;20595;-85
2022/06/14 01:32:56;;;;;;;8.35;6.00;;;;;;;21.70;100.00;100454.34;4999157;28;20027;-87
2022/06/14 01:35:26;;;;;;;15.15;6.03;;;;;;;21.54;100.00;100455.88;4995218;28;20038;-86
2022/06/14 01:37:55;;;;;;;15.85;5.88;;;;;;;21.65;100.00;100455.03;4997356;28;20042;-86
2022/06/14 01:40:36;;;;;;;7.55;4.80;;;;;;;21.61;100.00;100458.44;5007426;28;20046;-85
2022/06/14 01:43:33;;;;;;;12.10;5.57;;;;;;;21.39;100.00;100457.41;4995661;28;20077;-88
2022/06/14 01:46:29;;;;;;;12.13;4.68;;;;;;;21.65;100.00;100462.31;5012006;28;20044;-87
2022/06/14 01:52:19;;;;;;;9.15;5.20;;;;;;;21.36;100.00;100457.88;4993507;28;20057;-86
2022/06/14 01:54:59;;;;;;;11.10;5.55;;;;;;;21.30;100.00;100465.03;4990455;28;20034;-86
2022/06/14 01:57:35;;;;;;;11.52;5.43;;;;;;;21.40;100.00;100462.56;4998863;28;20095;-86
2022/06/14 02:00:23;;;;;;;17.13;5.22;;;;;;;21.39;100.00;100458.22;4999546;28;20507;-86
2022/06/14 02:06:11;;;;;;;9.70;5.47;;;;;;;21.33;100.00;100469.94;4995525;28;20038;-88
2022/06/14 02:08:54;;;;;;;11.88;6.20;;;;;;;21.39;100.00;100469.00;5009532;28;20479;-86
2022/06/14 02:11:27;;;;;;;16.92;5.80;;;;;;;21.32;100.00;100471.00;4995605;28;20157;-88
2022/06/14 02:14:00;;;;;;;13.95;6.35;;;;;;;21.25;100.00;100472.16;4999560;28;20104;-87
2022/06/14 02:17:03;;;;;;;11.43;6.07;;;;;;;21.25;100.00;100466.75;4997477;28;20038;-87
2022/06/14 02:19:35;;;;;;;11.40;6.75;;;;;;;21.22;100.00;100478.00;4989718;28;20554;-88
2022/06/14 02:22:45;;;;;;;14.68;6.50;;;;;;;21.30;100.00;100466.91;4998746;28;20045;-86
2022/06/14 02:25:29;;;;;;;14.20;6.43;;;;;;;21.26;100.00;100471.09;4993817;28;20491;-85
2022/06/14 02:28:07;;;;;;;12.75;6.53;;;;;;;21.19;100.00;100479.31;4998672;28;20117;-86
2022/06/14 02:30:43;;;;;;;14.07;6.07;;;;;;;21.16;100.00;100476.25;4991391;28;20034;-90
2022/06/14 02:33:11;;;;;;;10.00;5.95;;;;;;;21.03;100.00;100475.38;4996215;28;20157;-87
2022/06/14 02:35:46;;;;;;;11.88;6.63;;;;;;;21.04;100.00;100476.22;4996448;28;20034;-88
2022/06/14 02:38:37;;;;;;;16.20;7.28;;;;;;;21.01;100.00;100476.69;4995156;28;20066;-89
2022/06/14 02:41:32;;;;;;;12.70;6.82;;;;;;;21.08;100.00;100488.16;4995701;28;20046;-87
2022/06/14 02:44:38;;;;;;;11.10;7.10;;;;;;;21.13;100.00;100485.63;5003960;28;20098;-87
2022/06/14 02:47:13;;;;;;;12.07;7.03;;;;;;;21.24;100.00;100484.84;4995440;28;20050;-85
2022/06/14 02:50:20;;;;;;;14.40;8.45;;;;;;;21.31;100.00;100492.81;4995549;28;20047;-85
2022/06/14 02:53:16;;;;;;;14.57;9.40;;;;;;;21.23;100.00;100485.06;4978389;28;20071;-85
2022/06/14 02:55:54;;;;;;;14.05;8.63;;;;;;;21.29;100.00;100490.34;4983556;28;20053;-85
2022/06/14 02:58:32;;;;;;;14.75;7.97;;;;;;;21.39;100.00;100490.56;5001236;28;20030;-86
2022/06/14 03:01:12;;;;;;;11.50;9.30;;;;;;;21.40;100.00;100486.00;5001048;28;20030;-85
2022/06/14 03:04:07;;;;;;;13.98;9.60;;;;;;;21.14;100.00;100493.47;4984423;28;20093;-86
2022/06/14 03:06:56;;;;;;;17.77;8.57;;;;;;;21.05;100.00;100494.00;4999084;28;20060;-84
2022/06/14 03:09:25;;;;;;;15.45;8.40;;;;;;;21.02;100.00;100494.47;5001611;28;20038;-87
2022/06/14 03:11:57;;;;;;;22.50;8.00;;;;;;;20.91;100.00;100496.06;5001028;28;20054;-84
2022/06/14 03:14:47;;;;;;;16.70;8.35;;;;;;;20.78;100.00;100496.25;4999941;28;20039;-83
2022/06/14 03:17:29;;;;;;;11.93;8.25;;;;;;;20.56;100.00;100500.53;5002081;28;20053;-85
2022/06/14 03:20:12;;;;;;;18.13;8.50;;;;;;;20.66;100.00;100497.28;5002912;28;20041;-86
2022/06/14 03:22:49;;;;;;;19.83;7.60;;;;;;;20.75;100.00;100509.41;4992886;28;20038;-85
2022/06/14 03:25:43;;;;;;;12.35;7.15;;;;;;;20.86;100.00;100508.59;4990950;28;20100;-84
2022/06/14 03:28:39;;;;;;;9.38;7.72;;;;;;;20.55;100.00;100515.03;4993607;28;20484;-83
2022/06/14 03:31:13;;;;;;;11.93;7.20;;;;;;;20.61;100.00;100512.25;4988271;28;20221;-84
2022/06/14 03:33:59;;;;;;;12.27;7.57;;;;;;;20.49;100.00;100516.75;4998817;28;20113;-86
2022/06/14 03:36:25;;;;;;;12.10;7.65;;;;;;;20.52;100.00;100521.69;4992977;28;20097;-82
2022/06/14 03:39:12;;;;;;;10.90;7.80;;;;;;;20.64;100.00;100519.06;4997911;28;20026;-87
2022/06/14 03:41:44;;;;;;;10.52;7.45;;;;;;;20.60;100.00;100528.66;4992266;28;20058;-86
2022/06/14 03:44:15;;;;;;;16.83;7.82;;;;;;;20.39;100.00;100531.81;5000629;28;20039;-85
2022/06/14 03:47:03;;;;;;;14.30;8.50;;;;;;;20.37;100.00;100523.13;4997150;28;20034;-85
2022/06/14 03:49:29;;;;;;;13.52;8.40;;;;;;;20.53;100.00;100533.28;5000292;28;20396;-85
2022/06/14 03:52:02;;;;;;;14.20;8.10;;;;;;;20.46;100.00;100532.53;4996636;28;20042;-85
2022/06/14 03:54:47;;;;;;;10.70;8.18;;;;;;;20.37;100.00;100541.97;4998939;28;20484;-85
2022/06/14 03:57:38;;;;;;;11.10;7.82;;;;;;;20.19;100.00;100541.94;4996084;28;20480;-84
2022/06/14 04:00:25;;;;;;;14.57;8.25;;;;;;;20.08;100.00;100541.63;4998470;28;20038;-86
2022/06/14 04:02:58;;;;;;;23.52;8.73;;;;;;;20.13;100.00;100543.66;4991591;28;20076;-86
2022/06/14 04:05:47;;;;;;;12.55;9.02;;;;;;;20.10;100.00;100542.25;4997001;28;20053;-87
2022/06/14 04:08:18;;;;;;;14.23;8.80;;;;;;;20.01;100.00;100545.47;5000746;28;20152;-87
2022/06/14 04:10:56;;;;;;;16.42;9.43;;;;;;;19.98;100.00;100553.97;5000535;28;20035;-89
2022/06/14 04:13:49;;;;;;;15.27;10.88;;;;;;;19.94;100.00;100555.47;4999558;28;20038;-86
2022/06/14 04:16:33;;;;;;;17.10;10.50;;;;;;;20.03;100.00;100560.34;4998363;28;20514;-85
2022/06/14 04:19:08;;;;;;;18.95;11.88;;;;;;;20.00;100.00;100560.78;4998114;28;20061;-86
2022/06/14 04:21:50;;;;;;;17.00;11.73;;;;;;;20.05;100.00;100563.63;4997560;28;20062;-84
2022/06/14 04:24:32;;;;;;;19.17;11.13;;;;;;;20.12;100.00;100564.38;4993977;28;20034;-85
2022/06/14 04:27:21;;;;;;;19.48;11.45;;;;;;;20.30;100.00;100570.84;4995822;28;20038;-83
2022/06/14 04:30:12;;;;;;;15.00;11.80;;;;;;;20.44;100.00;100572.34;4998601;28;20130;-85
2022/06/14 04:33:12;;;;;;;17.65;11.68;;;;;;;20.50;100.00;100571.44;4998437;28;20038;-85
2022/06/14 04:35:52;;;;;;;19.30;11.23;;;;;;;20.54;100.00;100568.09;4980802;28;20035;-84
2022/06/14 04:38:24;;;;;;;17.02;11.23;;;;;;;20.73;100.00;100570.75;4997535;28;20038;-85
2022/06/14 04:40:58;;;;;;;15.15;11.20;;;;;;;20.77;100.00;100572.75;4998928;28;20072;-85
2022/06/14 04:43:36;;;;;;;18.70;12.13;;;;;;;20.75;100.00;100574.03;5003134;28;20030;-84
2022/06/14 04:46:17;;;;;;;16.92;11.43;;;;;;;20.73;100.00;100571.56;5004609;28;20038;-87
2022/06/14 04:49:07;;;;;;;14.90;11.10;;;;;;;20.81;100.00;100579.34;4996180;28;20129;-86
2022/06/14 04:51:53;;;;;;;18.55;12.38;;;;;;;20.84;100.00;100578.88;5002407;28;20500;-86
2022/06/14 04:54:22;;;;;;;18.98;12.52;;;;;;;20.90;100.00;100580.66;5000936;28;20034;-85
2022/06/14 04:56:51;;;;;;;18.30;11.70;;;;;;;20.98;100.00;100574.16;5003536;28;20137;-85
2022/06/14 04:59:25;;;;;;;15.85;11.98;;;;;;;21.14;100.00;100574.31;4995613;28;20039;-87
2022/06/14 05:01:56;;;;;;;19.67;11.50;;;;;;;21.34;100.00;100573.22;4989207;28;20035;-89
2022/06/14 05:04:30;;;;;;;18.20;10.95;;;;;;;21.38;100.00;100574.38;5005018;28;20030;-87
2022/06/14 05:07:33;;;;;;;19.67;11.43;;;;;;;21.58;100.00;100580.28;4999028;28;20043;-87
2022/06/14 05:10:06;;;;;;;;;;;;;;;21.72;100.00;100573.63;4988436;28;20046;-87
2022/06/14 05:12:56;;;;;;;14.65;9.88;;;;;;;21.91;100.00;100577.88;5000590;28;19917;-87
2022/06/14 05:15:46;;;;;;;15.65;10.68;;;;;;;21.87;100.00;100590.19;5014429;28;20038;-86
2022/06/14 05:18:27;;;;;;;18.17;11.00;;;;;;;21.79;100.00;100585.13;5003478;28;20076;-87
2022/06/14 05:21:03;;;;;;;23.02;11.18;;;;;;;21.95;100.00;100594.44;5019425;28;20028;-86
2022/06/14 05:23:45;;;;;;;16.20;10.50;;;;;;;21.98;100.00;100593.94;5018159;28;20026;-85
2022/06/14 05:26:40;;;;;;;17.48;10.85;;;;;;;22.20;100.00;100599.59;5018105;28;20038;-83
2022/06/14 05:29:33;;;;;;;20.25;10.77;;;;;;;22.34;100.00;100606.41;4933995;29;20048;-88
2022/06/14 05:32:07;;;;;;;24.10;11.50;;;;;;;22.35;100.00;100605.31;4945124;29;20044;-88
2022/06/14 05:34:38;;;;;;;21.50;9.95;;;;;;;22.48;100.00;100611.28;4946829;29;20031;-91
2022/06/14 05:37:13;;;;;;;23.17;10.10;;;;;;;22.60;100.00;100613.97;4948037;29;20036;-85
2022/06/14 05:39:54;;;;;;;16.73;10.07;;;;;;;22.47;100.00;100619.66;4956730;28;20046;-85
2022/06/14 05:42:25;;;;;;;14.38;10.35;;;;;;;22.56;100.00;100620.91;5000505;28;20656;-88
2022/06/14 05:45:00;;;;;;;20.75;11.75;;;;;;;22.50;100.00;100624.56;5002880;28;20041;-85
2022/06/14 05:47:33;;;;;;;15.98;11.05;;;;;;;22.66;100.00;100626.56;5004146;28;20035;-90
2022/06/14 05:50:05;;;;;;;18.27;11.02;;;;;;;22.72;100.00;100630.19;5009100;28;20045;-83
2022/06/14 05:56:31;;;;;;;15.75;11.00;;;;;;;22.91;100.00;100627.06;5021554;23;20034;-83
2022/06/14 06:01:51;;;;;;;23.92;11.50;;;;;;;23.33;100.00;100640.31;5063288;23;20050;-84
2022/06/14 06:04:55;;;;;;;19.27;12.15;;;;;;;23.33;100.00;100637.63;5032802;28;20083;-86
2022/06/14 06:07:32;;;;;;;20.27;12.25;;;;;;;23.44;99.48;100642.16;5016114;28;20022;-88
2022/06/14 06:10:29;;;;;;;20.85;12.20;;;;;;;23.40;98.84;100639.13;5034965;28;20028;-85
2022/06/14 06:13:36;;;;;;;19.00;11.73;;;;;;;23.52;98.32;100641.78;5033114;28;20033;-84
2022/06/14 06:16:37;;;;;;;15.68;11.68;;;;;;;23.74;95.23;100645.38;5028275;28;20102;-87
2022/06/14 06:20:25;;;;;;;13.88;11.07;;;;;;;24.02;93.49;100652.63;5011792;28;20114;-87
2022/06/14 06:24:09;;;;;;;14.50;10.40;;;;;;;24.03;92.71;100651.53;5107755;23;21161;-86
2022/06/14 06:27:13;;;;;;;19.55;9.32;;;;;;;24.50;86.61;100660.13;5034848;28;20046;-87
2022/06/14 06:30:15;;;;;;;18.63;9.10;;;;;;;24.74;83.47;100666.97;5250581;23;20373;-87
2022/06/14 06:32:52;;;;;;;18.55;9.50;;;;;;;24.85;81.04;100652.50;4988551;28;20396;-88
2022/06/14 06:35:29;;;;;;;17.58;9.15;;;;;;;24.77;82.17;100666.44;4986501;28;20046;-88
2022/06/14 06:38:06;;;;;;;14.25;9.40;;;;;;;25.16;78.47;100665.31;4984895;28;20058;-87
2022/06/14 06:41:49;;;;;;;14.32;9.52;;;;;;;25.07;79.37;100677.72;4980932;28;20038;-85
2022/06/14 06:43:27;;;;;;;;;;;;;;;25.70;75.58;100670.78;4968990;28;20498;-85
2022/06/14 06:45:53;;;;;;;15.43;8.98;;;;;;;25.70;75.48;100671.63;4982015;28;19921;-87
2022/06/14 06:48:36;;;;;;;15.55;9.18;;;;;;;25.36;77.61;100669.31;4977377;28;20409;-86
2022/06/14 06:51:07;;;;;;;14.68;10.00;;;;;;;25.52;75.70;100676.59;4980752;28;20049;-86
2022/06/14 06:53:40;;;;;;;36.65;9.15;;;;;;;25.43;75.36;100675.38;4980009;28;20511;-86
2022/06/14 06:56:49;;;;;;;10.20;6.78;;;;;;;25.72;72.61;100671.34;4980212;28;20094;-86
2022/06/14 06:59:39;;;;;;;13.90;7.72;;;;;;;26.12;68.77;100668.13;4969360;28;20046;-85
2022/06/14 07:02:23;;;;;;;14.00;7.82;;;;;;;26.33;68.29;100669.13;4981707;28;20133;-83
2022/06/14 07:05:14;;;;;;;11.23;7.03;;;;;;;25.97;70.49;100671.56;4987168;28;20042;-87
2022/06/14 07:08:41;;;;;;;9.48;7.55;;;;;;;26.25;68.25;100669.66;4986813;28;20058;-85
2022/06/14 07:11:42;;;;;;;10.15;7.95;;;;;;;25.80;70.61;100687.19;5008142;23;20425;-84
2022/06/14 07:14:37;;;;;;;12.27;8.77;;;;;;;26.16;69.40;100680.97;5015813;28;20042;-85
2022/06/14 07:17:28;;;;;;;13.68;7.70;;;;;;;26.24;69.95;100687.00;5023776;28;20101;-87
2022/06/14 07:20:26;;;;;;;15.25;7.78;;;;;;;26.71;67.28;100682.41;5028142;23;20038;-89
2022/06/14 07:26:44;;;;;;;12.07;9.48;;;;;;;26.54;67.51;100695.38;4986204;28;20604;-86
2022/06/14 07:29:20;;;;;;;16.33;10.43;;;;;;;26.46;67.63;100707.53;5002973;28;20125;-85
2022/06/14 07:32:32;;;;;;;22.08;11.57;;;;;;;25.58;73.42;100689.16;5000317;28;20050;-86
2022/06/14 07:35:56;;;;;;;18.25;10.95;;;;;;;26.08;72.10;100695.00;5003325;28;20101;-83
2022/06/14 07:38:44;;;;;;;19.13;10.75;;;;;;;26.50;69.49;100697.78;5015446;28;20035;-84
2022/06/14 07:42:14;;;;;;;14.80;11.02;;;;;;;26.69;68.04;100698.16;5251225;22;20046;-86
2022/06/14 07:45:39;;;;;;;15.45;10.93;;;;;;;27.24;66.65;100690.25;4996749;28;20039;-85
2022/06/14 07:48:28;;;;;;;16.73;10.85;;;;;;;27.09;65.01;100690.22;4969837;29;20047;-86
2022/06/14 07:51:05;;;;;;;18.27;10.90;;;;;;;27.19;66.12;100695.69;4936046;29;20039;-85
2022/06/14 07:53:58;;;;;;;12.05;9.48;;;;;;;27.69;63.55;100694.19;4949816;29;20243;-86
2022/06/14 07:56:37;;;;;;;16.80;9.50;;;;;;;27.58;63.84;100687.91;4939722;29;20039;-84
2022/06/14 07:59:18;;;;;;;18.23;9.63;;;;;;;28.18;62.06;100698.06;5021891;28;20042;-86
2022/06/14 08:01:59;;;;;;;16.75;10.55;;;;;;;27.76;63.04;100705.66;5013481;28;20503;-84
2022/06/14 08:04:32;;;;;;;16.77;11.35;;;;;;;27.12;65.55;100695.13;5018731;28;20069;-86
2022/06/14 08:07:17;;;;;;;16.45;11.32;;;;;;;26.75;68.11;100697.09;5018250;28;20019;-84
2022/06/14 08:10:16;;;;;;;23.05;11.43;;;;;;;27.22;66.59;100695.16;5035407;28;20097;-86
2022/06/14 08:13:16;;;;;;;18.02;11.65;;;;;;;27.20;67.26;100694.63;5031421;28;20057;-86
2022/06/14 08:15:55;;;;;;;23.13;11.93;;;;;;;27.67;65.15;100688.22;4991638;28;20038;-85
2022/06/14 08:18:42;;;;;;;15.48;11.70;;;;;;;27.37;65.89;100707.19;4990644;28;20018;-85
2022/06/14 08:21:38;;;;;;;24.58;12.15;;;;;;;27.28;66.73;100706.06;5005855;28;20030;-86
2022/06/14 08:24:31;;;;;;;16.02;11.73;;;;;;;27.13;68.01;100702.22;5031565;28;20117;-84
2022/06/14 08:27:30;;;;;;;25.90;11.40;;;;;;;27.51;65.80;100713.78;5025848;28;20041;-85
2022/06/14 08:30:26;;;;;;;15.73;12.10;;;;;;;27.57;65.24;100710.00;5000491;28;20046;-84
2022/06/14 08:33:35;;;;;;;16.88;11.43;;;;;;;27.69;66.08;100710.53;5017369;28;20118;-83
2022/06/14 08:36:20;;;;;;;17.55;10.73;;;;;;;27.99;62.44;100707.03;5008163;28;20050;-84
2022/06/14 08:38:57;;;;;;;14.23;9.13;;;;;;;28.19;62.62;100705.16;5010529;28;20037;-85
2022/06/14 08:41:55;;;;;;;17.02;10.15;;;;;;;27.77;64.27;100712.75;4987328;28;20050;-84
2022/06/14 08:44:34;;;;;;;17.90;10.45;;;;;;;27.92;62.96;100715.47;5017928;28;20042;-85
2022/06/14 08:47:32;;;;;;;18.50;10.43;;;;;;;27.87;64.13;100718.22;5005686;28;20073;-83
2022/06/14 08:50:25;;;;;;;15.77;10.55;;;;;;;27.38;66.11;100720.50;5012624;28;20035;-84
2022/06/14 08:53:11;;;;;;;14.40;9.38;;;;;;;27.59;65.03;100707.81;4996935;28;20061;-84
2022/06/14 08:55:53;;;;;;;10.32;8.25;;;;;;;27.69;63.37;100716.81;5009485;28;20062;-81
2022/06/14 08:58:26;;;;;;;;;;;;;;;28.17;61.87;100720.94;4993304;28;20050;-80
2022/06/14 09:01:16;;;;;;;10.50;8.13;;;;;;;28.08;61.57;100729.94;4996527;28;19957;-84
2022/06/14 09:04:14;;;;;;;15.02;8.32;;;;;;;27.68;62.66;100727.97;5002488;28;20199;-84
2022/06/14 09:07:22;;;;;;;10.48;6.25;;;;;;;27.86;62.65;100719.28;4976720;28;20411;-83
2022/06/14 09:10:29;;;;;;;14.00;6.10;;;;;;;28.09;62.49;100707.06;5000861;28;20057;-84
2022/06/14 09:13:19;;;;;;;10.45;5.72;;;;;;;28.31;60.49;100709.47;4985773;28;20074;-84
2022/06/14 09:16:06;;;;;;;8.27;5.70;;;;;;;28.20;60.14;100712.25;5001022;28;20042;-83
2022/06/14 09:18:37;;;;;;;13.18;5.55;;;;;;;28.21;60.70;100713.03;4994387;28;20114;-82
2022/06/14 09:21:16;;;;;;;7.30;5.28;;;;;;;28.41;59.03;100712.19;4993563;28;20047;-84
2022/06/14 09:24:09;;;;;;;9.38;5.35;;;;;;;27.92;59.81;100722.81;4988266;28;20109;-82
2022/06/14 09:26:44;;;;;;;11.80;5.22;;;;;;;27.94;60.94;100724.19;5006177;28;20042;-86
2022/06/14 09:29:44;;;;;;;13.23;5.38;;;;;;;27.86;61.44;100711.13;4977314;28;20046;-81
2022/06/14 09:36:01;;;;;;;11.88;4.40;;;;;;;28.37;58.73;100711.13;5001824;28;20038;-80
2022/06/14 09:39:06;;;;;;;8.45;4.28;;;;;;;28.70;57.56;100718.72;5007714;28;20109;-79
2022/06/14 09:42:09;;;;;;;13.68;4.40;;;;;;;28.57;56.39;100717.34;4996844;28;20464;-83
2022/06/14 09:45:13;;;;;;;12.05;3.92;;;;;;;28.16;59.73;100711.16;4988127;28;20093;-81
2022/06/14 09:48:14;;;;;;;17.30;4.43;;;;;;;27.86;60.47;100700.22;5014532;28;20034;-83
2022/06/14 09:50:58;;;;;;;7.47;3.30;;;;;;;28.18;60.09;100703.50;4992575;28;20030;-81
2022/06/14 09:53:49;;;;;;;6.15;2.72;;;;;;;28.26;56.50;100704.88;5000475;28;21282;-86
2022/06/14 09:56:48;;;;;;;9.35;3.53;;;;;;;28.39;56.89;100695.31;4996863;28;20073;-84
2022/06/14 09:59:52;;;;;;;10.90;3.10;;;;;;;28.35;56.74;100710.56;4980986;28;20047;-82
2022/06/14 10:02:33;;;;;;;15.70;3.17;;;;;;;28.23;57.94;100695.34;4990861;28;20130;-84
2022/06/14 10:05:21;;;;;;;9.88;3.17;;;;;;;28.50;55.60;100716.00;5000705;28;20065;-85
2022/06/14 10:07:56;;;;;;;7.30;3.03;;;;;;;28.11;56.99;100691.25;4991769;28;20114;-81
2022/06/14 10:10:51;;;;;;;7.68;3.15;;;;;;;28.29;55.50;100704.31;4985099;28;20034;-84
2022/06/14 10:13:44;;;;;;;9.00;3.15;;;;;;;28.32;56.75;100702.94;5000125;28;20042;-84
2022/06/14 10:16:36;;;;;;;10.55;2.78;;;;;;;28.70;56.14;100697.69;4988028;28;20134;-84
2022/06/14 10:19:21;;;;;;;10.27;2.50;;;;;;;28.55;54.52;100703.19;4994801;28;20034;-83
2022/06/14 10:25:21;;;;;;;9.52;3.17;;;;;;;28.64;52.95;100692.50;5077651;23;20042;-86
2022/06/14 10:28:59;;;;;;;9.25;2.80;;;;;;;28.72;53.53;100687.34;4998396;28;20078;-87
2022/06/14 10:32:07;;;;;;;19.27;4.15;;;;;;;28.71;54.18;100682.16;5007564;28;20050;-83
2022/06/14 10:35:05;;;;;;;14.45;2.72;;;;;;;29.15;51.40;100696.72;5262398;22;20045;-89
2022/06/14 10:40:40;;;;;;;7.70;2.43;;;;;;;29.34;49.74;100698.81;5348957;23;20021;-88
2022/06/14 10:46:34;;;;;;;14.20;3.17;;;;;;;29.61;51.24;100693.75;5144055;23;20065;-90
2022/06/14 10:53:04;;;;;;;6.95;2.40;;;;;;;29.43;50.80;100691.69;4818329;26;20046;-89
2022/06/14 10:58:55;;;;;;;8.13;2.15;;;;;;;29.79;48.73;100684.06;3031764;26;20426;-84
2022/06/14 11:02:07;;;;;;;10.82;2.63;;;;;;;29.81;48.50;100688.13;5008055;28;20054;-84
2022/06/14 11:05:15;;;;;;;8.82;2.58;;;;;;;30.11;47.48;100676.97;5013312;28;20039;-84
2022/06/14 11:09:18;;;;;;;7.43;2.63;;;;;;;29.95;48.14;100682.88;4999439;28;20080;-89
2022/06/14 11:12:22;;;;;;;12.40;2.50;;;;;;;29.96;48.40;100679.81;5008243;28;20034;-87
2022/06/14 11:15:05;;;;;;;8.10;2.30;;;;;;;30.44;47.98;100674.47;4984199;28;20094;-88
2022/06/14 11:21:01;;;;;;;8.82;2.35;;;;;;;30.38;47.48;100670.97;4628861;26;20137;-87
2022/06/14 11:24:09;;;;;;;5.70;2.20;;;;;;;30.08;46.93;100677.56;5020810;28;20034;-87
2022/06/14 11:32:17;;;;;;;5.93;2.22;;;;;;;29.40;48.72;100673.13;4723280;26;20037;-87
2022/06/14 11:35:04;;;;;;;7.28;2.15;;;;;;;29.03;49.35;100670.84;5161474;23;20106;-85
2022/06/14 11:37:51;;;;;;;7.57;2.33;;;;;;;29.00;50.80;100668.69;4980212;28;20045;-86
2022/06/14 11:40:28;;;;;;;8.70;2.47;;;;;;;29.14;52.07;100667.78;4998080;28;20053;-83
2022/06/14 11:43:38;;;;;;;12.65;2.72;;;;;;;29.10;50.43;100677.63;4996694;28;20059;-83
2022/06/14 11:46:24;;;;;;;9.25;2.08;;;;;;;28.63;51.23;100678.09;4997094;28;20062;-83
2022/06/14 11:49:19;;;;;;;9.75;2.70;;;;;;;28.63;51.39;100672.63;4995903;28;20082;-84
2022/06/14 11:52:21;;;;;;;9.43;2.30;;;;;;;28.69;50.32;100649.72;4980073;28;20050;-86
2022/06/14 11:55:22;;;;;;;20.40;3.25;;;;;;;28.62;50.26;100661.97;5110373;23;20118;-87
2022/06/14 11:57:59;;;;;;;11.93;2.35;;;;;;;28.81;50.41;100654.00;5003494;28;20041;-85
2022/06/14 12:00:57;;;;;;;7.75;2.60;;;;;;;28.91;50.99;100668.44;5000900;28;20103;-85
2022/06/14 12:04:07;;;;;;;12.10;2.70;;;;;;;28.84;51.10;100662.47;5149878;23;20085;-83
2022/06/14 12:07:05;;;;;;;11.52;2.60;;;;;;;28.85;50.64;100636.00;4989416;28;20043;-83
2022/06/14 12:09:55;;;;;;;9.27;2.70;;;;;;;28.82;50.53;100647.47;4977419;28;20090;-81
2022/06/14 12:15:37;;;;;;;8.70;2.73;;;;;;;28.59;50.71;100629.81;4998730;28;20053;-86
2022/06/14 12:18:12;;;;;;;12.40;2.60;;;;;;;28.82;50.33;100631.94;4984282;28;20079;-86
2022/06/14 12:21:11;;;;;;;7.85;2.67;;;;;;;29.04;50.56;100637.00;4995641;28;20035;-82
2022/06/14 12:24:21;;;;;;;11.50;2.88;;;;;;;28.98;49.99;100628.03;4965544;28;20043;-86
2022/06/14 12:27:08;;;;;;;8.75;2.10;;;;;;;29.00;49.12;100634.00;5006594;28;20039;-84
2022/06/14 12:30:09;;;;;;;12.23;2.42;;;;;;;28.91;49.60;100635.69;5007956;28;20039;-87
2022/06/14 12:33:28;;;;;;;9.82;2.75;;;;;;;28.91;49.30;100638.41;4988559;28;20046;-84
2022/06/14 12:36:00;;;;;;;9.10;2.05;;;;;;;28.86;49.34;100626.72;4982587;28;20089;-84
2022/06/14 12:38:34;;;;;;;14.82;2.50;;;;;;;28.98;49.26;100625.28;4987584;28;20106;-84
2022/06/14 12:41:31;;;;;;;15.95;2.38;;;;;;;29.07;48.63;100625.50;4996901;28;20043;-80
2022/06/14 12:44:21;;;;;;;12.80;2.55;;;;;;;28.96;48.31;100632.97;4990126;28;20050;-83
2022/06/14 12:47:13;;;;;;;13.60;2.38;;;;;;;28.88;48.54;100625.34;4991332;28;20101;-80
2022/06/14 12:50:11;;;;;;;8.70;2.13;;;;;;;29.16;49.02;100626.56;4990576;28;20046;-83
2022/06/14 12:52:45;;;;;;;11.52;2.38;;;;;;;29.12;47.31;100637.22;4994362;28;20560;-81
2022/06/14 12:55:43;;;;;;;11.23;2.15;;;;;;;29.02;47.42;100626.38;4991812;28;20038;-82
2022/06/14 12:58:43;;;;;;;12.40;2.30;;;;;;;29.03;48.47;100619.00;4957219;29;20052;-83
2022/06/14 13:01:59;;;;;;;12.52;2.83;;;;;;;29.16;48.17;100616.47;4942459;29;20039;-88
2022/06/14 13:04:43;;;;;;;14.07;2.53;;;;;;;28.71;48.87;100620.22;4958448;29;20039;-90
2022/06/14 13:10:57;;;;;;;7.45;1.80;;;;;;;29.21;48.15;100601.94;5017515;23;20030;-86
2022/06/14 13:14:08;;;;;;;9.00;2.45;;;;;;;29.16;47.74;100583.72;4996891;28;20027;-88
2022/06/14 13:17:23;;;;;;;12.77;2.58;;;;;;;29.22;46.85;100592.66;4992853;28;20045;-87
2022/06/14 13:20:44;;;;;;;11.82;2.33;;;;;;;29.19;47.39;100574.94;5320506;23;20100;-88
2022/06/14 13:24:00;;;;;;;9.15;2.20;;;;;;;29.35;47.79;100592.06;5005445;28;20042;-89
2022/06/14 13:27:20;;;;;;;9.90;2.30;;;;;;;29.05;47.71;100582.13;5013389;28;20038;-89
2022/06/14 13:30:51;;;;;;;7.78;1.80;;;;;;;29.11;47.88;100564.63;5004566;28;20043;-88
2022/06/14 13:34:20;;;;;;;9.63;2.25;;;;;;;29.24;47.19;100568.63;5359380;23;20080;-89
2022/06/14 13:43:46;;;;;;;8.55;2.28;;;;;;;29.20;47.62;100568.38;5478320;23;20043;-91
2022/06/14 13:46:35;;;;;;;10.00;2.83;;;;;;;29.10;47.96;100568.44;4971405;28;20069;-88